Archibald, Louisiana
Current Conditions -  °F | °C
As of 4:53 AM on Saturday 22 Nov 2014 (Local Time) from KMLU Reporting Station
Overcast Overcast  
Wind Chill: 57°   Ceiling: 7500
Heat Index: 57°   Visibility: 10mi
Dew Point: 51°   Wind: 6mph
Humidity: 81%   Direction: 80°E
Pressure: 30.24"   Gusts: NA
Location:  32.35°N, 91.78°W
Report Text: KMLU 221053Z AUTO 08005KT 10SM FEW055 BKN075 OVC100 14/11 A3024 RMK AO2 RAB24E33 SLP238 P0000 T01390106
Loading
Personal Weather Stations






























Interactive Weather Map New forecast layout! Learn more

10-Day Weather Forecast

Advertisements
Track Severe Weather on mobile